< < Back
Terminal Aerodrome Forecast


Current Version              Previous Versions:   1  2  3  4  5  6  7  8  9  

Terminal Aerodrome Forecast

956
FTUS42 KGSP 051730
TAFCLT
TAF
KCLT 051730Z 0518/0618 21010KT P6SM VCSH SCT040 BKN120
      TEMPO 0519/0523 -SHRA BKN040
     FM060100 20006KT P6SM SCT050 BKN150
     FM060900 23005KT P6SM FEW020 SCT150
     FM061400 23007KT P6SM SCT040=



Latest METAR

444
SAUS70 KWBC 061400 RRD
MTRCLT
METAR KCLT 061352Z 22004KT 10SM SCT250 26/20 A3016 RMK AO2 SLP204
T02610200


USA.gov is the U.S. government's official web portal to all federal, state and local government web resources and services.